sensor_id;sensor_type;location;lat;lon;timestamp;temperature;humidity
76305;DHT22;65111;50.536;19.204;2023-03-04T00:02:05;0.20;85.00
76305;DHT22;65111;50.536;19.204;2023-03-04T00:04:31;0.30;85.00
76305;DHT22;65111;50.536;19.204;2023-03-04T00:06:56;0.30;85.00
76305;DHT22;65111;50.536;19.204;2023-03-04T00:09:22;0.40;85.10
76305;DHT22;65111;50.536;19.204;2023-03-04T00:11:48;0.30;85.00
76305;DHT22;65111;50.536;19.204;2023-03-04T00:14:14;0.40;85.20
76305;DHT22;65111;50.536;19.204;2023-03-04T00:16:40;0.30;85.20
76305;DHT22;65111;50.536;19.204;2023-03-04T00:19:06;0.40;85.10
76305;DHT22;65111;50.536;19.204;2023-03-04T00:21:32;0.20;85.10
76305;DHT22;65111;50.536;19.204;2023-03-04T00:23:58;0.30;85.40
76305;DHT22;65111;50.536;19.204;2023-03-04T00:26:24;0.20;85.50
76305;DHT22;65111;50.536;19.204;2023-03-04T00:28:49;0.20;85.40
76305;DHT22;65111;50.536;19.204;2023-03-04T00:31:15;0.20;85.60
76305;DHT22;65111;50.536;19.204;2023-03-04T00:33:41;0.20;85.60
76305;DHT22;65111;50.536;19.204;2023-03-04T00:36:09;0.30;85.70
76305;DHT22;65111;50.536;19.204;2023-03-04T00:38:36;0.10;85.70
76305;DHT22;65111;50.536;19.204;2023-03-04T00:41:02;0.20;85.80
76305;DHT22;65111;50.536;19.204;2023-03-04T00:43:28;0.30;85.70
76305;DHT22;65111;50.536;19.204;2023-03-04T00:45:54;0.30;85.80
76305;DHT22;65111;50.536;19.204;2023-03-04T00:48:21;0.10;85.80
76305;DHT22;65111;50.536;19.204;2023-03-04T00:50:47;0.20;86.10
76305;DHT22;65111;50.536;19.204;2023-03-04T00:53:14;0.30;86.20
76305;DHT22;65111;50.536;19.204;2023-03-04T00:55:40;0.20;86.20
76305;DHT22;65111;50.536;19.204;2023-03-04T00:58:06;0.20;86.30
76305;DHT22;65111;50.536;19.204;2023-03-04T01:00:32;0.40;86.30
76305;DHT22;65111;50.536;19.204;2023-03-04T01:02:58;0.10;86.40
76305;DHT22;65111;50.536;19.204;2023-03-04T01:05:24;0.20;86.50
76305;DHT22;65111;50.536;19.204;2023-03-04T01:07:50;0.10;86.50
76305;DHT22;65111;50.536;19.204;2023-03-04T01:10:16;0.10;86.70
76305;DHT22;65111;50.536;19.204;2023-03-04T01:12:42;0.20;86.70
76305;DHT22;65111;50.536;19.204;2023-03-04T01:15:10;0.20;86.70
76305;DHT22;65111;50.536;19.204;2023-03-04T01:17:36;0.20;86.70
76305;DHT22;65111;50.536;19.204;2023-03-04T01:20:03;0.30;86.70
76305;DHT22;65111;50.536;19.204;2023-03-04T01:22:30;0.20;86.60
76305;DHT22;65111;50.536;19.204;2023-03-04T01:24:56;0.20;86.80
76305;DHT22;65111;50.536;19.204;2023-03-04T01:27:22;0.20;86.80
76305;DHT22;65111;50.536;19.204;2023-03-04T01:29:48;0.20;86.90
76305;DHT22;65111;50.536;19.204;2023-03-04T01:32:14;0.10;86.90
76305;DHT22;65111;50.536;19.204;2023-03-04T01:34:40;0.20;86.80
76305;DHT22;65111;50.536;19.204;2023-03-04T01:37:06;0.20;86.90
76305;DHT22;65111;50.536;19.204;2023-03-04T01:39:33;0.30;87.00
76305;DHT22;65111;50.536;19.204;2023-03-04T01:41:59;0.30;87.00
76305;DHT22;65111;50.536;19.204;2023-03-04T01:44:25;0.20;87.00
76305;DHT22;65111;50.536;19.204;2023-03-04T01:46:53;0.10;87.10
76305;DHT22;65111;50.536;19.204;2023-03-04T01:49:20;0.30;87.10
76305;DHT22;65111;50.536;19.204;2023-03-04T01:51:50;0.10;87.30
76305;DHT22;65111;50.536;19.204;2023-03-04T01:54:18;0.10;87.30
76305;DHT22;65111;50.536;19.204;2023-03-04T01:56:46;0.10;87.40
76305;DHT22;65111;50.536;19.204;2023-03-04T01:59:28;0.20;87.30
76305;DHT22;65111;50.536;19.204;2023-03-04T02:01:57;0.00;87.40
76305;DHT22;65111;50.536;19.204;2023-03-04T02:04:28;0.20;87.40
76305;DHT22;65111;50.536;19.204;2023-03-04T02:06:55;0.10;87.40
76305;DHT22;65111;50.536;19.204;2023-03-04T02:09:22;0.20;87.40
76305;DHT22;65111;50.536;19.204;2023-03-04T02:11:49;0.10;87.50
76305;DHT22;65111;50.536;19.204;2023-03-04T02:14:16;0.10;87.50
76305;DHT22;65111;50.536;19.204;2023-03-04T02:16:43;0.10;87.60
76305;DHT22;65111;50.536;19.204;2023-03-04T02:22:00;0.20;87.50
76305;DHT22;65111;50.536;19.204;2023-03-04T02:24:54;0.20;87.50
76305;DHT22;65111;50.536;19.204;2023-03-04T02:27:22;0.10;87.80
76305;DHT22;65111;50.536;19.204;2023-03-04T02:29:48;0.20;87.80
76305;DHT22;65111;50.536;19.204;2023-03-04T02:32:15;0.20;87.80
76305;DHT22;65111;50.536;19.204;2023-03-04T02:34:46;0.10;87.80
76305;DHT22;65111;50.536;19.204;2023-03-04T02:37:14;0.00;88.00
76305;DHT22;65111;50.536;19.204;2023-03-04T02:39:44;0.10;87.90
76305;DHT22;65111;50.536;19.204;2023-03-04T02:42:11;0.20;88.00
76305;DHT22;65111;50.536;19.204;2023-03-04T02:44:40;0.10;87.90
76305;DHT22;65111;50.536;19.204;2023-03-04T02:47:08;0.20;87.90
76305;DHT22;65111;50.536;19.204;2023-03-04T02:49:36;0.10;88.10
76305;DHT22;65111;50.536;19.204;2023-03-04T02:52:16;0.00;88.10
76305;DHT22;65111;50.536;19.204;2023-03-04T02:54:43;0.10;88.10
76305;DHT22;65111;50.536;19.204;2023-03-04T02:57:10;0.00;88.00
76305;DHT22;65111;50.536;19.204;2023-03-04T02:59:38;0.10;88.00
76305;DHT22;65111;50.536;19.204;2023-03-04T03:02:05;0.00;88.00
76305;DHT22;65111;50.536;19.204;2023-03-04T03:04:32;0.10;87.90
76305;DHT22;65111;50.536;19.204;2023-03-04T03:06:58;0.00;88.00
76305;DHT22;65111;50.536;19.204;2023-03-04T03:09:24;0.00;88.10
76305;DHT22;65111;50.536;19.204;2023-03-04T03:11:49;0.00;88.30
76305;DHT22;65111;50.536;19.204;2023-03-04T03:14:15;0.10;88.20
76305;DHT22;65111;50.536;19.204;2023-03-04T03:16:41;0.20;88.20
76305;DHT22;65111;50.536;19.204;2023-03-04T03:19:08;0.00;88.20
76305;DHT22;65111;50.536;19.204;2023-03-04T03:21:34;0.00;88.20
76305;DHT22;65111;50.536;19.204;2023-03-04T03:24:00;0.00;88.40
76305;DHT22;65111;50.536;19.204;2023-03-04T03:26:26;0.00;88.20
76305;DHT22;65111;50.536;19.204;2023-03-04T03:28:52;0.00;88.20
76305;DHT22;65111;50.536;19.204;2023-03-04T03:31:17;0.00;88.30
76305;DHT22;65111;50.536;19.204;2023-03-04T03:33:44;0.00;88.20
76305;DHT22;65111;50.536;19.204;2023-03-04T03:36:10;-3276.70;88.30
76305;DHT22;65111;50.536;19.204;2023-03-04T03:38:36;0.00;88.40
76305;DHT22;65111;50.536;19.204;2023-03-04T03:41:03;0.00;88.40
76305;DHT22;65111;50.536;19.204;2023-03-04T03:43:29;0.00;88.20
76305;DHT22;65111;50.536;19.204;2023-03-04T03:45:55;-3276.70;88.40
76305;DHT22;65111;50.536;19.204;2023-03-04T03:48:21;0.00;88.40
76305;DHT22;65111;50.536;19.204;2023-03-04T03:50:46;-3276.70;88.50
76305;DHT22;65111;50.536;19.204;2023-03-04T03:53:12;0.00;88.50
76305;DHT22;65111;50.536;19.204;2023-03-04T03:55:38;0.00;88.40
76305;DHT22;65111;50.536;19.204;2023-03-04T03:58:05;0.00;88.50
76305;DHT22;65111;50.536;19.204;2023-03-04T04:00:31;0.10;88.40
76305;DHT22;65111;50.536;19.204;2023-03-04T04:02:59;0.00;88.60
76305;DHT22;65111;50.536;19.204;2023-03-04T04:05:25;-3276.70;88.40
76305;DHT22;65111;50.536;19.204;2023-03-04T04:07:52;0.00;88.50
76305;DHT22;65111;50.536;19.204;2023-03-04T04:10:18;-3276.70;88.40
76305;DHT22;65111;50.536;19.204;2023-03-04T04:12:45;-3276.70;88.40
76305;DHT22;65111;50.536;19.204;2023-03-04T04:15:11;0.00;88.40
76305;DHT22;65111;50.536;19.204;2023-03-04T04:17:37;0.00;88.40
76305;DHT22;65111;50.536;19.204;2023-03-04T04:20:05;0.10;88.30
76305;DHT22;65111;50.536;19.204;2023-03-04T04:22:32;0.00;88.20
76305;DHT22;65111;50.536;19.204;2023-03-04T04:24:58;0.00;88.20
76305;DHT22;65111;50.536;19.204;2023-03-04T04:27:24;0.00;88.20
76305;DHT22;65111;50.536;19.204;2023-03-04T04:29:49;0.20;88.10
76305;DHT22;65111;50.536;19.204;2023-03-04T04:32:15;0.20;88.20
76305;DHT22;65111;50.536;19.204;2023-03-04T04:34:41;0.10;88.10
76305;DHT22;65111;50.536;19.204;2023-03-04T04:37:07;0.10;87.90
76305;DHT22;65111;50.536;19.204;2023-03-04T04:39:33;0.10;87.90
76305;DHT22;65111;50.536;19.204;2023-03-04T04:42:00;0.10;88.00
76305;DHT22;65111;50.536;19.204;2023-03-04T04:44:25;0.10;87.90
76305;DHT22;65111;50.536;19.204;2023-03-04T04:46:51;0.20;87.90
76305;DHT22;65111;50.536;19.204;2023-03-04T04:49:17;0.20;87.90
76305;DHT22;65111;50.536;19.204;2023-03-04T04:51:43;0.20;87.80
76305;DHT22;65111;50.536;19.204;2023-03-04T04:54:10;0.10;87.70
76305;DHT22;65111;50.536;19.204;2023-03-04T04:56:38;0.10;87.70
76305;DHT22;65111;50.536;19.204;2023-03-04T04:59:05;0.10;87.60
76305;DHT22;65111;50.536;19.204;2023-03-04T05:01:33;0.30;87.70
76305;DHT22;65111;50.536;19.204;2023-03-04T05:03:59;0.10;87.70
76305;DHT22;65111;50.536;19.204;2023-03-04T05:06:26;0.10;87.80
76305;DHT22;65111;50.536;19.204;2023-03-04T05:08:52;0.00;87.70
76305;DHT22;65111;50.536;19.204;2023-03-04T05:11:19;0.10;87.70
76305;DHT22;65111;50.536;19.204;2023-03-04T05:13:46;0.20;87.70
76305;DHT22;65111;50.536;19.204;2023-03-04T05:16:12;0.00;87.60
76305;DHT22;65111;50.536;19.204;2023-03-04T05:18:39;0.10;87.70
76305;DHT22;65111;50.536;19.204;2023-03-04T05:21:05;0.00;87.70
76305;DHT22;65111;50.536;19.204;2023-03-04T05:23:33;0.00;87.50
76305;DHT22;65111;50.536;19.204;2023-03-04T05:26:01;0.20;87.60
76305;DHT22;65111;50.536;19.204;2023-03-04T05:28:27;0.00;87.60
76305;DHT22;65111;50.536;19.204;2023-03-04T05:30:53;0.00;87.50
76305;DHT22;65111;50.536;19.204;2023-03-04T05:33:19;0.30;87.40
76305;DHT22;65111;50.536;19.204;2023-03-04T05:35:47;0.20;87.40
76305;DHT22;65111;50.536;19.204;2023-03-04T05:38:15;0.10;87.30
76305;DHT22;65111;50.536;19.204;2023-03-04T05:40:43;0.00;87.40
76305;DHT22;65111;50.536;19.204;2023-03-04T05:43:10;0.30;87.20
76305;DHT22;65111;50.536;19.204;2023-03-04T05:45:36;0.20;87.10
76305;DHT22;65111;50.536;19.204;2023-03-04T05:48:03;0.40;87.00
76305;DHT22;65111;50.536;19.204;2023-03-04T05:50:29;0.10;86.80
76305;DHT22;65111;50.536;19.204;2023-03-04T05:52:56;0.40;86.70
76305;DHT22;65111;50.536;19.204;2023-03-04T05:55:22;0.20;86.60
76305;DHT22;65111;50.536;19.204;2023-03-04T05:57:49;0.20;86.50
76305;DHT22;65111;50.536;19.204;2023-03-04T06:00:15;0.10;86.50
76305;DHT22;65111;50.536;19.204;2023-03-04T06:02:42;0.30;86.50
76305;DHT22;65111;50.536;19.204;2023-03-04T06:05:11;0.30;86.40
76305;DHT22;65111;50.536;19.204;2023-03-04T06:07:37;0.40;86.40
76305;DHT22;65111;50.536;19.204;2023-03-04T06:10:04;0.40;86.30
76305;DHT22;65111;50.536;19.204;2023-03-04T06:12:31;0.40;86.10
76305;DHT22;65111;50.536;19.204;2023-03-04T06:14:57;0.50;86.00
76305;DHT22;65111;50.536;19.204;2023-03-04T06:17:23;0.40;86.00
76305;DHT22;65111;50.536;19.204;2023-03-04T06:19:49;0.50;85.90
76305;DHT22;65111;50.536;19.204;2023-03-04T06:22:15;0.50;85.80
76305;DHT22;65111;50.536;19.204;2023-03-04T06:24:40;0.50;85.40
76305;DHT22;65111;50.536;19.204;2023-03-04T06:27:06;0.40;85.30
76305;DHT22;65111;50.536;19.204;2023-03-04T06:29:33;0.70;85.00
76305;DHT22;65111;50.536;19.204;2023-03-04T06:31:58;0.60;84.90
76305;DHT22;65111;50.536;19.204;2023-03-04T06:34:25;0.60;85.00
76305;DHT22;65111;50.536;19.204;2023-03-04T06:36:50;0.80;84.90
76305;DHT22;65111;50.536;19.204;2023-03-04T06:39:16;0.90;84.80
76305;DHT22;65111;50.536;19.204;2023-03-04T06:41:42;0.70;84.50
76305;DHT22;65111;50.536;19.204;2023-03-04T06:44:08;0.70;84.40
76305;DHT22;65111;50.536;19.204;2023-03-04T06:46:34;0.80;84.30
76305;DHT22;65111;50.536;19.204;2023-03-04T06:49:01;0.90;84.40
76305;DHT22;65111;50.536;19.204;2023-03-04T06:51:27;1.00;84.30
76305;DHT22;65111;50.536;19.204;2023-03-04T06:53:53;0.80;84.10
76305;DHT22;65111;50.536;19.204;2023-03-04T06:56:19;1.00;84.10
76305;DHT22;65111;50.536;19.204;2023-03-04T06:58:45;1.00;84.00
76305;DHT22;65111;50.536;19.204;2023-03-04T07:03:40;0.90;83.60
76305;DHT22;65111;50.536;19.204;2023-03-04T07:06:09;0.80;83.60
76305;DHT22;65111;50.536;19.204;2023-03-04T07:08:35;0.90;83.50
76305;DHT22;65111;50.536;19.204;2023-03-04T07:11:01;0.80;83.20
76305;DHT22;65111;50.536;19.204;2023-03-04T07:13:28;1.10;83.00
76305;DHT22;65111;50.536;19.204;2023-03-04T07:15:54;1.10;83.10
76305;DHT22;65111;50.536;19.204;2023-03-04T07:18:20;1.20;83.10
76305;DHT22;65111;50.536;19.204;2023-03-04T07:20:46;1.00;82.90
76305;DHT22;65111;50.536;19.204;2023-03-04T07:23:12;1.20;82.80
76305;DHT22;65111;50.536;19.204;2023-03-04T07:25:37;0.90;82.80
76305;DHT22;65111;50.536;19.204;2023-03-04T07:28:03;1.40;82.50
76305;DHT22;65111;50.536;19.204;2023-03-04T07:30:29;1.10;82.30
76305;DHT22;65111;50.536;19.204;2023-03-04T07:32:58;1.20;82.30
76305;DHT22;65111;50.536;19.204;2023-03-04T07:35:24;1.20;82.30
76305;DHT22;65111;50.536;19.204;2023-03-04T07:37:50;1.20;81.90
76305;DHT22;65111;50.536;19.204;2023-03-04T07:40:16;1.30;81.70
76305;DHT22;65111;50.536;19.204;2023-03-04T07:42:42;1.20;81.70
76305;DHT22;65111;50.536;19.204;2023-03-04T07:45:09;1.20;81.80
76305;DHT22;65111;50.536;19.204;2023-03-04T07:47:35;1.20;81.60
76305;DHT22;65111;50.536;19.204;2023-03-04T07:50:01;1.30;81.70
76305;DHT22;65111;50.536;19.204;2023-03-04T07:52:27;1.50;81.60
76305;DHT22;65111;50.536;19.204;2023-03-04T07:54:53;1.50;81.50
76305;DHT22;65111;50.536;19.204;2023-03-04T07:57:19;1.40;81.40
76305;DHT22;65111;50.536;19.204;2023-03-04T07:59:45;1.40;81.40
76305;DHT22;65111;50.536;19.204;2023-03-04T08:02:11;1.40;81.30
76305;DHT22;65111;50.536;19.204;2023-03-04T08:04:37;1.50;81.00
76305;DHT22;65111;50.536;19.204;2023-03-04T08:07:03;1.60;81.00
76305;DHT22;65111;50.536;19.204;2023-03-04T08:09:29;1.40;80.80
76305;DHT22;65111;50.536;19.204;2023-03-04T08:11:56;1.70;80.50
76305;DHT22;65111;50.536;19.204;2023-03-04T08:14:21;1.60;80.70
76305;DHT22;65111;50.536;19.204;2023-03-04T08:16:47;1.60;80.40
76305;DHT22;65111;50.536;19.204;2023-03-04T08:19:13;1.60;80.20
76305;DHT22;65111;50.536;19.204;2023-03-04T08:21:39;1.50;79.80
76305;DHT22;65111;50.536;19.204;2023-03-04T08:24:05;1.70;79.90
76305;DHT22;65111;50.536;19.204;2023-03-04T08:26:40;1.80;79.80
76305;DHT22;65111;50.536;19.204;2023-03-04T08:29:09;1.90;79.70
76305;DHT22;65111;50.536;19.204;2023-03-04T08:31:35;1.90;79.50
76305;DHT22;65111;50.536;19.204;2023-03-04T08:34:03;1.80;79.30
76305;DHT22;65111;50.536;19.204;2023-03-04T08:36:29;1.90;79.00
76305;DHT22;65111;50.536;19.204;2023-03-04T08:38:55;2.00;79.00
76305;DHT22;65111;50.536;19.204;2023-03-04T08:41:21;1.90;79.10
76305;DHT22;65111;50.536;19.204;2023-03-04T08:43:47;2.00;78.90
76305;DHT22;65111;50.536;19.204;2023-03-04T08:46:13;2.00;78.90
76305;DHT22;65111;50.536;19.204;2023-03-04T08:48:39;2.20;78.70
76305;DHT22;65111;50.536;19.204;2023-03-04T08:51:10;2.10;78.50
76305;DHT22;65111;50.536;19.204;2023-03-04T08:53:37;2.10;78.60
76305;DHT22;65111;50.536;19.204;2023-03-04T08:56:04;2.10;78.40
76305;DHT22;65111;50.536;19.204;2023-03-04T08:58:30;2.10;78.40
76305;DHT22;65111;50.536;19.204;2023-03-04T09:00:58;2.00;78.30
76305;DHT22;65111;50.536;19.204;2023-03-04T09:03:25;2.10;78.20
76305;DHT22;65111;50.536;19.204;2023-03-04T09:05:51;2.20;78.10
76305;DHT22;65111;50.536;19.204;2023-03-04T09:08:17;2.20;78.30
76305;DHT22;65111;50.536;19.204;2023-03-04T09:10:44;2.10;78.30
76305;DHT22;65111;50.536;19.204;2023-03-04T09:13:11;2.20;78.40
76305;DHT22;65111;50.536;19.204;2023-03-04T09:15:46;2.00;78.50
76305;DHT22;65111;50.536;19.204;2023-03-04T09:18:13;2.20;78.60
76305;DHT22;65111;50.536;19.204;2023-03-04T09:20:40;2.10;78.50
76305;DHT22;65111;50.536;19.204;2023-03-04T09:23:06;2.20;78.40
76305;DHT22;65111;50.536;19.204;2023-03-04T09:25:34;2.20;78.30
76305;DHT22;65111;50.536;19.204;2023-03-04T09:28:01;2.20;78.30
76305;DHT22;65111;50.536;19.204;2023-03-04T09:30:27;2.20;78.10
76305;DHT22;65111;50.536;19.204;2023-03-04T09:32:53;2.20;78.20
76305;DHT22;65111;50.536;19.204;2023-03-04T09:35:19;2.10;78.20
76305;DHT22;65111;50.536;19.204;2023-03-04T09:37:45;2.20;78.10
76305;DHT22;65111;50.536;19.204;2023-03-04T09:40:36;2.10;78.30
76305;DHT22;65111;50.536;19.204;2023-03-04T09:43:04;2.10;78.40
76305;DHT22;65111;50.536;19.204;2023-03-04T09:45:44;2.20;78.30
76305;DHT22;65111;50.536;19.204;2023-03-04T09:48:17;2.20;78.30
76305;DHT22;65111;50.536;19.204;2023-03-04T09:56:40;2.30;78.20
76305;DHT22;65111;50.536;19.204;2023-03-04T10:01:53;2.30;77.80
76305;DHT22;65111;50.536;19.204;2023-03-04T10:07:12;2.40;77.90
76305;DHT22;65111;50.536;19.204;2023-03-04T10:12:29;2.80;77.40
76305;DHT22;65111;50.536;19.204;2023-03-04T10:15:06;2.70;77.30
76305;DHT22;65111;50.536;19.204;2023-03-04T10:20:03;3.00;76.80
76305;DHT22;65111;50.536;19.204;2023-03-04T10:22:51;3.00;76.90
76305;DHT22;65111;50.536;19.204;2023-03-04T10:25:21;3.00;77.00
76305;DHT22;65111;50.536;19.204;2023-03-04T10:27:51;3.00;77.20
76305;DHT22;65111;50.536;19.204;2023-03-04T10:33:33;3.40;76.30
76305;DHT22;65111;50.536;19.204;2023-03-04T10:39:00;3.50;76.20
76305;DHT22;65111;50.536;19.204;2023-03-04T10:41:28;3.80;76.20
76305;DHT22;65111;50.536;19.204;2023-03-04T10:44:04;3.60;75.60
76305;DHT22;65111;50.536;19.204;2023-03-04T10:46:38;3.80;75.50
76305;DHT22;65111;50.536;19.204;2023-03-04T10:49:04;3.80;75.50
76305;DHT22;65111;50.536;19.204;2023-03-04T10:51:30;3.80;75.40
76305;DHT22;65111;50.536;19.204;2023-03-04T10:54:01;3.70;75.60
76305;DHT22;65111;50.536;19.204;2023-03-04T10:56:36;3.70;75.80
76305;DHT22;65111;50.536;19.204;2023-03-04T11:02:31;3.70;76.30
76305;DHT22;65111;50.536;19.204;2023-03-04T11:07:43;3.30;77.00
76305;DHT22;65111;50.536;19.204;2023-03-04T11:12:47;3.30;78.10
76305;DHT22;65111;50.536;19.204;2023-03-04T11:15:23;3.30;78.40
76305;DHT22;65111;50.536;19.204;2023-03-04T11:20:31;3.10;78.90
76305;DHT22;65111;50.536;19.204;2023-03-04T11:23:05;3.00;79.10
76305;DHT22;65111;50.536;19.204;2023-03-04T11:25:45;3.10;79.30
76305;DHT22;65111;50.536;19.204;2023-03-04T11:28:18;3.00;79.50
76305;DHT22;65111;50.536;19.204;2023-03-04T11:30:54;2.90;79.70
76305;DHT22;65111;50.536;19.204;2023-03-04T11:33:28;3.00;79.70
76305;DHT22;65111;50.536;19.204;2023-03-04T11:38:49;2.90;80.10
76305;DHT22;65111;50.536;19.204;2023-03-04T11:41:29;3.00;80.10
76305;DHT22;65111;50.536;19.204;2023-03-04T11:43:58;3.10;80.40
76305;DHT22;65111;50.536;19.204;2023-03-04T11:54:51;2.90;80.60
76305;DHT22;65111;50.536;19.204;2023-03-04T12:03:18;2.90;80.80
76305;DHT22;65111;50.536;19.204;2023-03-04T12:08:47;2.70;81.20
76305;DHT22;65111;50.536;19.204;2023-03-04T12:22:46;2.80;81.60
76305;DHT22;65111;50.536;19.204;2023-03-04T12:42:29;2.90;81.60
76305;DHT22;65111;50.536;19.204;2023-03-04T12:47:55;2.90;81.80
76305;DHT22;65111;50.536;19.204;2023-03-04T12:50:40;2.80;81.90
76305;DHT22;65111;50.536;19.204;2023-03-04T12:53:13;2.80;82.00
76305;DHT22;65111;50.536;19.204;2023-03-04T12:55:44;2.60;82.10
76305;DHT22;65111;50.536;19.204;2023-03-04T12:58:23;2.70;82.30
76305;DHT22;65111;50.536;19.204;2023-03-04T13:01:14;2.50;82.50
76305;DHT22;65111;50.536;19.204;2023-03-04T13:04:05;2.40;82.60
76305;DHT22;65111;50.536;19.204;2023-03-04T13:09:49;2.60;82.90
76305;DHT22;65111;50.536;19.204;2023-03-04T13:12:19;2.50;83.00
76305;DHT22;65111;50.536;19.204;2023-03-04T13:22:49;2.60;83.50
76305;DHT22;65111;50.536;19.204;2023-03-04T13:28:34;2.60;83.60
76305;DHT22;65111;50.536;19.204;2023-03-04T13:31:10;2.60;83.60
76305;DHT22;65111;50.536;19.204;2023-03-04T13:41:46;2.60;84.10
76305;DHT22;65111;50.536;19.204;2023-03-04T13:47:13;2.50;84.20
76305;DHT22;65111;50.536;19.204;2023-03-04T13:49:40;2.60;84.40
76305;DHT22;65111;50.536;19.204;2023-03-04T13:57:59;2.80;84.50
76305;DHT22;65111;50.536;19.204;2023-03-04T14:00:26;2.80;84.30
76305;DHT22;65111;50.536;19.204;2023-03-04T14:02:53;2.90;84.40
76305;DHT22;65111;50.536;19.204;2023-03-04T14:05:18;3.00;84.30
76305;DHT22;65111;50.536;19.204;2023-03-04T14:07:44;3.00;84.20
76305;DHT22;65111;50.536;19.204;2023-03-04T14:12:47;3.20;84.10
76305;DHT22;65111;50.536;19.204;2023-03-04T14:15:23;3.40;84.00
76305;DHT22;65111;50.536;19.204;2023-03-04T14:18:01;3.20;83.80
76305;DHT22;65111;50.536;19.204;2023-03-04T14:22:55;3.50;83.40
76305;DHT22;65111;50.536;19.204;2023-03-04T14:25:23;3.50;83.10
76305;DHT22;65111;50.536;19.204;2023-03-04T14:28:01;3.50;82.90
76305;DHT22;65111;50.536;19.204;2023-03-04T14:30:29;3.50;82.80
76305;DHT22;65111;50.536;19.204;2023-03-04T14:32:57;3.30;82.70
76305;DHT22;65111;50.536;19.204;2023-03-04T14:35:28;3.50;82.70
76305;DHT22;65111;50.536;19.204;2023-03-04T14:38:02;3.30;82.90
76305;DHT22;65111;50.536;19.204;2023-03-04T14:40:39;3.50;82.90
76305;DHT22;65111;50.536;19.204;2023-03-04T14:43:24;3.30;82.80
76305;DHT22;65111;50.536;19.204;2023-03-04T14:45:54;3.30;82.70
76305;DHT22;65111;50.536;19.204;2023-03-04T14:50:48;3.40;82.40
76305;DHT22;65111;50.536;19.204;2023-03-04T14:53:17;3.20;82.50
76305;DHT22;65111;50.536;19.204;2023-03-04T14:56:06;3.30;82.60
76305;DHT22;65111;50.536;19.204;2023-03-04T14:58:38;3.30;82.40
76305;DHT22;65111;50.536;19.204;2023-03-04T15:01:19;3.40;82.60
76305;DHT22;65111;50.536;19.204;2023-03-04T15:03:59;3.40;82.40
76305;DHT22;65111;50.536;19.204;2023-03-04T15:06:32;3.30;82.40
76305;DHT22;65111;50.536;19.204;2023-03-04T15:09:04;3.40;82.60
76305;DHT22;65111;50.536;19.204;2023-03-04T15:11:44;3.30;82.40
76305;DHT22;65111;50.536;19.204;2023-03-04T15:25:14;3.10;82.60
76305;DHT22;65111;50.536;19.204;2023-03-04T15:27:41;3.20;82.60
76305;DHT22;65111;50.536;19.204;2023-03-04T15:30:20;2.90;82.70
76305;DHT22;65111;50.536;19.204;2023-03-04T15:32:47;3.10;82.80
76305;DHT22;65111;50.536;19.204;2023-03-04T15:35:14;3.20;82.60
76305;DHT22;65111;50.536;19.204;2023-03-04T15:37:41;3.00;82.70
76305;DHT22;65111;50.536;19.204;2023-03-04T15:40:16;3.10;82.80
76305;DHT22;65111;50.536;19.204;2023-03-04T15:42:43;3.10;82.70
76305;DHT22;65111;50.536;19.204;2023-03-04T15:45:37;3.00;82.80
76305;DHT22;65111;50.536;19.204;2023-03-04T15:48:11;2.90;82.80
76305;DHT22;65111;50.536;19.204;2023-03-04T15:50:43;3.10;82.90
76305;DHT22;65111;50.536;19.204;2023-03-04T15:53:16;2.90;82.90
76305;DHT22;65111;50.536;19.204;2023-03-04T15:55:45;3.10;82.90
76305;DHT22;65111;50.536;19.204;2023-03-04T15:58:12;2.80;82.80
76305;DHT22;65111;50.536;19.204;2023-03-04T16:00:38;2.90;82.90
76305;DHT22;65111;50.536;19.204;2023-03-04T16:03:04;3.10;82.90
76305;DHT22;65111;50.536;19.204;2023-03-04T16:05:34;2.80;83.10
76305;DHT22;65111;50.536;19.204;2023-03-04T16:08:01;2.90;83.10
76305;DHT22;65111;50.536;19.204;2023-03-04T16:10:28;2.70;83.10
76305;DHT22;65111;50.536;19.204;2023-03-04T16:12:57;2.80;83.20
76305;DHT22;65111;50.536;19.204;2023-03-04T16:15:26;2.70;83.30
76305;DHT22;65111;50.536;19.204;2023-03-04T16:17:53;2.50;83.40
76305;DHT22;65111;50.536;19.204;2023-03-04T16:20:23;2.80;83.40
76305;DHT22;65111;50.536;19.204;2023-03-04T16:22:56;2.70;83.50
76305;DHT22;65111;50.536;19.204;2023-03-04T16:25:23;2.50;83.40
76305;DHT22;65111;50.536;19.204;2023-03-04T16:27:51;2.60;83.50
76305;DHT22;65111;50.536;19.204;2023-03-04T16:30:20;2.40;83.40
76305;DHT22;65111;50.536;19.204;2023-03-04T16:32:47;2.50;83.50
76305;DHT22;65111;50.536;19.204;2023-03-04T16:35:16;2.50;83.50
76305;DHT22;65111;50.536;19.204;2023-03-04T16:37:43;2.60;83.40
76305;DHT22;65111;50.536;19.204;2023-03-04T16:40:13;2.60;83.40
76305;DHT22;65111;50.536;19.204;2023-03-04T16:42:39;2.50;83.50
76305;DHT22;65111;50.536;19.204;2023-03-04T16:45:26;2.40;83.50
76305;DHT22;65111;50.536;19.204;2023-03-04T16:47:55;2.50;83.70
76305;DHT22;65111;50.536;19.204;2023-03-04T16:50:24;2.50;83.70
76305;DHT22;65111;50.536;19.204;2023-03-04T16:52:53;2.40;83.90
76305;DHT22;65111;50.536;19.204;2023-03-04T16:55:22;2.40;84.10
76305;DHT22;65111;50.536;19.204;2023-03-04T16:57:49;2.40;84.00
76305;DHT22;65111;50.536;19.204;2023-03-04T17:00:17;2.50;84.20
76305;DHT22;65111;50.536;19.204;2023-03-04T17:02:45;2.40;84.20
76305;DHT22;65111;50.536;19.204;2023-03-04T17:05:19;2.50;84.20
76305;DHT22;65111;50.536;19.204;2023-03-04T17:07:45;2.40;84.20
76305;DHT22;65111;50.536;19.204;2023-03-04T17:10:12;2.30;84.30
76305;DHT22;65111;50.536;19.204;2023-03-04T17:12:38;2.40;84.50
76305;DHT22;65111;50.536;19.204;2023-03-04T17:15:06;2.40;84.40
76305;DHT22;65111;50.536;19.204;2023-03-04T17:17:32;2.40;84.60
76305;DHT22;65111;50.536;19.204;2023-03-04T17:19:58;2.40;84.70
76305;DHT22;65111;50.536;19.204;2023-03-04T17:22:24;2.40;84.80
76305;DHT22;65111;50.536;19.204;2023-03-04T17:24:50;2.50;84.80
76305;DHT22;65111;50.536;19.204;2023-03-04T17:27:16;2.50;84.80
76305;DHT22;65111;50.536;19.204;2023-03-04T17:29:41;2.50;84.90
76305;DHT22;65111;50.536;19.204;2023-03-04T17:32:08;2.50;84.80
76305;DHT22;65111;50.536;19.204;2023-03-04T17:34:34;2.50;85.00
76305;DHT22;65111;50.536;19.204;2023-03-04T17:37:00;2.60;84.90
76305;DHT22;65111;50.536;19.204;2023-03-04T17:39:26;2.60;84.80
76305;DHT22;65111;50.536;19.204;2023-03-04T17:41:52;2.60;85.00
76305;DHT22;65111;50.536;19.204;2023-03-04T17:44:18;2.40;85.10
76305;DHT22;65111;50.536;19.204;2023-03-04T17:46:47;2.40;85.20
76305;DHT22;65111;50.536;19.204;2023-03-04T17:49:14;2.50;85.30
76305;DHT22;65111;50.536;19.204;2023-03-04T17:51:41;2.50;85.40
76305;DHT22;65111;50.536;19.204;2023-03-04T17:54:08;2.50;85.30
76305;DHT22;65111;50.536;19.204;2023-03-04T17:56:36;2.70;85.30
76305;DHT22;65111;50.536;19.204;2023-03-04T17:59:13;2.70;85.30